createdAt,value
2023-02-11T00:01:42.887Z,56.05
2023-02-11T00:04:11.270Z,37.92
2023-02-11T00:06:39.427Z,43.70
2023-02-11T00:09:07.886Z,72.82
2023-02-11T00:11:35.970Z,85.65
2023-02-11T00:14:08.065Z,61.00
2023-02-11T00:16:37.556Z,49.50
2023-02-11T00:19:06.754Z,48.17
2023-02-11T00:21:34.961Z,67.25
2023-02-11T00:24:03.001Z,55.25
2023-02-11T00:26:35.853Z,60.95
2023-02-11T00:29:05.977Z,43.60
2023-02-11T00:31:35.103Z,30.95
2023-02-11T00:34:03.173Z,37.38
2023-02-11T00:36:31.581Z,33.75
2023-02-11T00:39:00.887Z,38.25
2023-02-11T00:41:30.008Z,42.33
2023-02-11T00:44:01.755Z,41.47
2023-02-11T00:46:30.391Z,34.92
2023-02-11T00:48:58.810Z,30.40
2023-02-11T00:51:28.649Z,30.58
2023-02-11T00:53:57.296Z,33.10
2023-02-11T00:56:25.196Z,31.38
2023-02-11T00:58:54.287Z,32.10
2023-02-11T01:01:22.436Z,34.90
2023-02-11T01:03:50.425Z,52.17
2023-02-11T01:06:18.507Z,39.55
2023-02-11T01:08:46.460Z,45.97
2023-02-11T01:11:18.101Z,40.72
2023-02-11T01:13:47.238Z,38.35
2023-02-11T01:16:17.128Z,45.55
2023-02-11T01:21:15.078Z,46.42
2023-02-11T01:28:40.555Z,29.80
2023-02-11T01:31:08.895Z,38.30
2023-02-11T01:33:36.726Z,55.03
2023-02-11T01:36:08.435Z,36.25
2023-02-11T01:38:36.803Z,33.28
2023-02-11T01:41:11.355Z,40.13
2023-02-11T01:43:42.841Z,42.50
2023-02-11T01:46:29.274Z,47.88
2023-02-11T01:49:08.929Z,37.30
2023-02-11T01:52:01.940Z,55.75
2023-02-11T01:54:59.624Z,37.63
2023-02-11T01:57:31.388Z,32.47
2023-02-11T02:00:21.761Z,31.88
2023-02-11T02:03:04.476Z,39.55
2023-02-11T02:05:42.015Z,37.80
2023-02-11T02:08:32.474Z,28.00
2023-02-11T02:11:03.875Z,27.98
2023-02-11T02:13:34.314Z,29.95
2023-02-11T02:16:12.861Z,29.40
2023-02-11T02:19:08.788Z,33.13
2023-02-11T02:22:14.531Z,42.50
2023-02-11T02:25:01.264Z,20.65
2023-02-11T02:27:51.229Z,17.85
2023-02-11T02:30:43.856Z,24.55
2023-02-11T02:33:38.017Z,21.52
2023-02-11T02:36:14.722Z,17.42
2023-02-11T02:38:56.434Z,38.22
2023-02-11T02:41:30.146Z,23.73
2023-02-11T02:43:58.603Z,46.58
2023-02-11T02:46:30.106Z,74.30
2023-02-11T02:48:58.879Z,26.42
2023-02-11T02:51:58.213Z,21.35
2023-02-11T02:54:40.309Z,29.35
2023-02-11T02:58:54.206Z,23.23
2023-02-11T03:01:28.779Z,25.70
2023-02-11T03:04:18.661Z,29.35
2023-02-11T03:07:04.331Z,25.77
2023-02-11T03:09:42.954Z,32.15
2023-02-11T03:12:13.488Z,30.80
2023-02-11T03:14:42.326Z,27.80
2023-02-11T03:17:10.865Z,35.83
2023-02-11T03:19:44.679Z,32.70
2023-02-11T03:22:26.711Z,31.33
2023-02-11T03:24:56.532Z,20.88
2023-02-11T03:27:47.553Z,27.65
2023-02-11T03:30:26.450Z,28.05
2023-02-11T03:33:03.931Z,26.38
2023-02-11T03:36:03.851Z,24.73
2023-02-11T03:38:36.049Z,33.45
2023-02-11T03:41:08.170Z,24.13
2023-02-11T03:43:42.938Z,23.30
2023-02-11T03:46:13.766Z,28.25
2023-02-11T03:48:52.640Z,31.60
2023-02-11T03:51:22.567Z,31.67
2023-02-11T03:56:25.600Z,20.48
2023-02-11T03:58:53.687Z,26.65
2023-02-11T04:01:21.899Z,25.17
2023-02-11T04:03:49.767Z,27.55
2023-02-11T04:06:18.193Z,26.23
2023-02-11T04:08:46.066Z,30.80
2023-02-11T04:11:13.945Z,32.95
2023-02-11T04:13:41.739Z,36.20
2023-02-11T04:16:10.115Z,35.28
2023-02-11T04:18:38.334Z,25.58
2023-02-11T04:21:06.446Z,19.10
2023-02-11T04:23:34.300Z,19.35
2023-02-11T04:26:02.347Z,22.40
2023-02-11T04:28:30.328Z,15.25
2023-02-11T04:30:58.761Z,28.45
2023-02-11T04:33:26.827Z,23.38
2023-02-11T04:35:54.833Z,22.65
2023-02-11T04:38:24.421Z,22.83
2023-02-11T04:40:52.600Z,30.15
2023-02-11T04:43:20.547Z,27.58
2023-02-11T04:45:48.919Z,41.17
2023-02-11T04:48:17.056Z,38.90
2023-02-11T04:50:44.931Z,55.75
2023-02-11T04:53:12.891Z,57.83
2023-02-11T04:55:40.841Z,40.05
2023-02-11T04:58:08.814Z,78.03
2023-02-11T05:00:36.838Z,58.58
2023-02-11T05:03:04.598Z,45.75
2023-02-11T05:05:32.555Z,41.95
2023-02-11T05:08:00.551Z,42.28
2023-02-11T05:10:28.875Z,37.47
2023-02-11T05:12:56.964Z,35.88
2023-02-11T05:15:24.903Z,45.33
2023-02-11T05:17:53.285Z,46.40
2023-02-11T05:20:21.606Z,44.78
2023-02-11T05:22:49.587Z,43.47
2023-02-11T05:25:17.467Z,42.40
2023-02-11T05:27:45.588Z,38.22
2023-02-11T05:30:13.666Z,42.97
2023-02-11T05:32:42.460Z,35.80
2023-02-11T05:35:10.371Z,65.18
2023-02-11T05:37:38.616Z,45.20
2023-02-11T05:40:06.824Z,89.97
2023-02-11T05:42:34.803Z,78.00
2023-02-11T05:45:02.732Z,56.17
2023-02-11T05:47:30.861Z,48.83
2023-02-11T05:49:59.018Z,27.45
2023-02-11T05:52:26.953Z,27.35
2023-02-11T05:54:54.881Z,38.42
2023-02-11T05:57:23.089Z,41.05
2023-02-11T05:59:50.994Z,74.72
2023-02-11T06:02:19.192Z,111.30
2023-02-11T06:04:47.487Z,83.18
2023-02-11T06:07:15.629Z,91.82
2023-02-11T06:09:44.000Z,64.95
2023-02-11T06:12:12.934Z,48.40
2023-02-11T06:14:40.945Z,42.55
2023-02-11T06:17:09.219Z,47.85
2023-02-11T06:19:37.738Z,53.03
2023-02-11T06:22:06.094Z,48.42
2023-02-11T06:24:58.606Z,49.92
2023-02-11T06:27:22.434Z,58.17
2023-02-11T06:29:52.652Z,79.18
2023-02-11T06:32:42.091Z,76.68
2023-02-11T06:37:41.286Z,34.25
2023-02-11T06:40:10.469Z,55.17
2023-02-11T06:42:39.626Z,48.00
2023-02-11T06:45:13.420Z,46.25
2023-02-11T06:47:42.221Z,46.22
2023-02-11T06:50:13.926Z,74.53
2023-02-11T06:52:42.377Z,63.38
2023-02-11T06:55:10.570Z,45.63
2023-02-11T06:57:38.652Z,45.92
2023-02-11T07:00:09.461Z,48.63
2023-02-11T07:02:37.372Z,78.82
2023-02-11T07:05:07.438Z,64.68
2023-02-11T07:07:36.236Z,74.82
2023-02-11T07:10:04.891Z,57.45
2023-02-11T07:12:33.133Z,56.13
2023-02-11T07:15:01.309Z,71.35
2023-02-11T07:17:29.308Z,69.75
2023-02-11T07:19:57.292Z,50.67
2023-02-11T07:22:25.583Z,56.72
2023-02-11T07:24:53.677Z,56.92
2023-02-11T07:27:21.593Z,41.63
2023-02-11T07:29:49.560Z,34.10
2023-02-11T07:32:17.853Z,41.08
2023-02-11T07:34:46.019Z,43.22
2023-02-11T07:37:14.386Z,39.65
2023-02-11T07:39:42.292Z,41.30
2023-02-11T07:42:10.284Z,56.03
2023-02-11T07:44:38.295Z,41.30
2023-02-11T07:47:06.365Z,38.72
2023-02-11T07:49:34.340Z,37.95
2023-02-11T07:52:02.648Z,40.05
2023-02-11T07:54:30.797Z,48.33
2023-02-11T07:56:59.255Z,45.42
2023-02-11T07:59:27.689Z,52.50
2023-02-11T08:01:56.004Z,47.13
2023-02-11T08:04:24.039Z,88.50
2023-02-11T08:06:53.343Z,73.47
2023-02-11T08:09:21.477Z,80.35
2023-02-11T08:11:49.724Z,76.88
2023-02-11T08:14:17.708Z,60.75
2023-02-11T08:16:45.770Z,58.67
2023-02-11T08:19:16.263Z,31.65
2023-02-11T08:21:44.795Z,20.20
2023-02-11T08:24:12.870Z,18.88
2023-02-11T08:26:41.275Z,23.70
2023-02-11T08:29:12.379Z,22.45
2023-02-11T08:31:42.919Z,25.55
2023-02-11T08:34:14.413Z,33.47
2023-02-11T08:36:42.864Z,27.38
2023-02-11T08:39:22.565Z,21.67
2023-02-11T08:41:56.853Z,29.23
2023-02-11T08:44:25.266Z,30.15
2023-02-11T08:46:54.181Z,29.13
2023-02-11T08:49:23.041Z,35.33
2023-02-11T08:51:51.654Z,29.42
2023-02-11T08:54:19.763Z,33.53
2023-02-11T08:56:52.077Z,28.35
2023-02-11T08:59:20.440Z,29.52
2023-02-11T09:01:49.133Z,28.08
2023-02-11T09:04:17.905Z,29.95
2023-02-11T09:06:46.577Z,23.83
2023-02-11T09:09:16.140Z,24.15
2023-02-11T09:11:45.989Z,26.45
2023-02-11T09:14:23.199Z,23.17
2023-02-11T09:16:52.046Z,40.90
2023-02-11T09:19:21.308Z,31.05
2023-02-11T09:21:49.576Z,30.52
2023-02-11T09:24:17.632Z,29.00
2023-02-11T09:26:45.975Z,26.85
2023-02-11T09:29:14.078Z,29.55
2023-02-11T09:31:42.811Z,25.17
2023-02-11T09:34:11.886Z,51.55
2023-02-11T09:36:41.408Z,27.73
2023-02-11T09:39:17.209Z,35.60
2023-02-11T09:41:54.189Z,24.92
2023-02-11T09:44:25.771Z,29.00
2023-02-11T09:47:00.264Z,25.45
2023-02-11T09:49:49.118Z,23.80
2023-02-11T09:52:31.225Z,25.63
2023-02-11T09:55:02.380Z,29.52
2023-02-11T09:57:36.809Z,28.13
2023-02-11T10:00:32.618Z,32.33
2023-02-11T10:03:20.156Z,31.63
2023-02-11T10:06:23.563Z,24.63
2023-02-11T10:09:20.098Z,26.65
2023-02-11T10:11:59.712Z,28.55
2023-02-11T10:15:04.981Z,26.25
2023-02-11T10:18:07.149Z,27.27
2023-02-11T10:20:38.310Z,31.42
2023-02-11T10:23:26.123Z,29.27
2023-02-11T10:25:56.667Z,34.42
2023-02-11T10:28:31.689Z,35.97
2023-02-11T10:31:25.566Z,26.25
2023-02-11T10:34:06.819Z,41.97
2023-02-11T10:36:38.189Z,25.55
2023-02-11T10:39:26.396Z,23.55
2023-02-11T10:42:00.806Z,25.25
2023-02-11T10:44:33.531Z,25.23
2023-02-11T10:47:06.075Z,24.85
2023-02-11T10:49:43.233Z,34.00
2023-02-11T10:52:26.268Z,23.58
2023-02-11T10:54:58.437Z,22.90
2023-02-11T10:57:35.852Z,23.95
2023-02-11T11:00:27.174Z,33.70
2023-02-11T11:03:00.576Z,21.80
2023-02-11T11:05:47.756Z,28.50
2023-02-11T11:11:07.417Z,20.95
2023-02-11T11:36:02.851Z,22.15
2023-02-11T11:38:33.888Z,23.83
2023-02-11T12:25:35.883Z,20.45
2023-02-11T12:40:05.730Z,18.02
2023-02-11T12:52:16.927Z,17.27
2023-02-11T13:14:40.696Z,38.47
2023-02-11T13:26:27.251Z,35.08
2023-02-11T13:29:22.438Z,121.32
2023-02-11T13:35:09.799Z,49.38
2023-02-11T13:43:47.956Z,42.85
2023-02-11T14:00:31.386Z,28.52
2023-02-11T14:03:31.656Z,45.70
2023-02-11T14:06:37.869Z,44.03
2023-02-11T14:15:02.630Z,46.08
2023-02-11T14:44:22.673Z,21.15
2023-02-11T15:31:47.914Z,49.60
2023-02-11T15:34:16.591Z,35.63
2023-02-11T15:36:45.066Z,58.10
2023-02-11T15:39:18.920Z,88.30
2023-02-11T15:41:47.620Z,61.30
2023-02-11T15:44:33.093Z,66.50
2023-02-11T15:47:01.658Z,126.18
2023-02-11T15:49:30.615Z,100.47
2023-02-11T15:51:59.095Z,72.05
2023-02-11T15:54:31.946Z,80.70
2023-02-11T15:57:04.336Z,105.32
2023-02-11T15:59:38.998Z,68.97
2023-02-11T16:02:35.123Z,57.30
2023-02-11T16:05:10.198Z,51.63
2023-02-11T16:07:49.985Z,82.72
2023-02-11T16:10:27.937Z,82.40
2023-02-11T16:13:19.025Z,81.70
2023-02-11T16:16:04.396Z,107.20
2023-02-11T16:18:52.088Z,76.57
2023-02-11T16:21:43.645Z,82.15
2023-02-11T16:24:39.708Z,93.57
2023-02-11T16:27:22.009Z,90.03
2023-02-11T16:29:51.649Z,70.75
2023-02-11T16:32:23.964Z,53.95
2023-02-11T16:34:55.731Z,60.75
2023-02-11T16:37:25.556Z,42.55
2023-02-11T16:39:55.775Z,51.85
2023-02-11T16:42:24.894Z,45.10
2023-02-11T16:44:53.384Z,49.47
2023-02-11T16:47:27.518Z,46.60
2023-02-11T16:49:57.403Z,52.60
2023-02-11T16:52:26.383Z,47.88
2023-02-11T16:54:55.351Z,79.10
2023-02-11T16:57:28.805Z,50.78
2023-02-11T17:00:00.070Z,55.63
2023-02-11T17:02:33.312Z,47.35
2023-02-11T17:05:05.286Z,50.88
2023-02-11T17:07:34.539Z,83.93
2023-02-11T17:10:03.112Z,177.38
2023-02-11T17:12:31.994Z,146.68
2023-02-11T17:15:00.633Z,153.07
2023-02-11T17:17:30.370Z,109.90
2023-02-11T17:19:59.087Z,98.88
2023-02-11T17:22:27.546Z,101.70
2023-02-11T17:24:59.186Z,116.13
2023-02-11T17:27:28.041Z,154.68
2023-02-11T17:29:56.532Z,160.90
2023-02-11T17:32:25.135Z,163.10
2023-02-11T17:34:54.637Z,168.23
2023-02-11T17:37:22.881Z,143.20
2023-02-11T17:39:51.526Z,87.90
2023-02-11T17:42:20.144Z,105.00
2023-02-11T17:44:48.551Z,282.50
2023-02-11T17:47:17.109Z,185.65
2023-02-11T17:49:46.084Z,101.75
2023-02-11T17:52:15.255Z,109.32
2023-02-11T17:54:43.758Z,108.15
2023-02-11T17:57:13.700Z,102.68
2023-02-11T17:59:42.317Z,118.30
2023-02-11T18:02:13.037Z,117.43
2023-02-11T18:04:41.687Z,128.50
2023-02-11T18:07:09.993Z,119.95
2023-02-11T18:09:40.269Z,125.88
2023-02-11T18:12:09.370Z,139.45
2023-02-11T18:14:41.578Z,135.32
2023-02-11T18:17:11.210Z,146.70
2023-02-11T18:19:39.861Z,156.88
2023-02-11T18:22:09.849Z,124.70
2023-02-11T18:24:40.750Z,110.28
2023-02-11T18:27:09.725Z,104.45
2023-02-11T18:29:38.729Z,141.05
2023-02-11T18:32:07.408Z,135.95
2023-02-11T18:34:35.719Z,145.20
2023-02-11T18:37:04.198Z,128.40
2023-02-11T18:39:32.975Z,94.20
2023-02-11T18:42:01.467Z,123.07
2023-02-11T18:44:29.892Z,95.40
2023-02-11T18:46:58.578Z,99.20
2023-02-11T18:49:27.579Z,138.32
2023-02-11T18:51:58.625Z,92.15
2023-02-11T18:54:27.296Z,162.20
2023-02-11T18:56:55.683Z,235.38
2023-02-11T18:59:24.198Z,170.77
2023-02-11T19:01:52.828Z,92.80
2023-02-11T19:04:21.264Z,105.60
2023-02-11T19:06:50.384Z,118.30
2023-02-11T19:09:20.596Z,188.73
2023-02-11T19:11:52.671Z,137.65
2023-02-11T19:14:25.450Z,114.00
2023-02-11T19:16:56.938Z,155.48
2023-02-11T19:19:28.627Z,112.97
2023-02-11T19:21:58.720Z,110.82
2023-02-11T19:24:28.848Z,161.50
2023-02-11T19:26:59.535Z,189.27
2023-02-11T19:29:28.824Z,165.35
2023-02-11T19:31:57.275Z,159.55
2023-02-11T19:34:25.875Z,111.93
2023-02-11T19:36:54.815Z,145.55
2023-02-11T19:39:25.116Z,160.40
2023-02-11T19:41:54.183Z,205.50
2023-02-11T19:44:22.571Z,199.20
2023-02-11T19:46:53.727Z,227.25
2023-02-11T19:49:26.824Z,317.80
2023-02-11T19:51:58.639Z,236.60
2023-02-11T19:54:29.491Z,239.40
2023-02-11T19:56:59.103Z,142.85
2023-02-11T19:59:27.914Z,202.25
2023-02-11T20:01:56.398Z,134.10
2023-02-11T20:04:25.465Z,172.77
2023-02-11T20:06:54.015Z,207.93
2023-02-11T20:09:23.184Z,219.75
2023-02-11T20:11:51.686Z,205.55
2023-02-11T20:14:20.222Z,192.13
2023-02-11T20:16:50.092Z,147.57
2023-02-11T20:19:22.157Z,190.10
2023-02-11T20:21:56.156Z,174.02
2023-02-11T20:24:25.969Z,139.98
2023-02-11T20:26:57.378Z,149.35
2023-02-11T20:29:26.274Z,167.10
2023-02-11T20:31:55.335Z,150.35
2023-02-11T20:34:25.345Z,131.65
2023-02-11T20:36:54.692Z,110.95
2023-02-11T20:39:25.700Z,127.32
2023-02-11T20:41:54.884Z,135.55
2023-02-11T20:44:23.768Z,110.35
2023-02-11T20:46:54.638Z,118.18
2023-02-11T20:49:25.035Z,90.47
2023-02-11T20:51:54.326Z,97.20
2023-02-11T20:54:25.299Z,91.18
2023-02-11T20:56:54.607Z,121.38
2023-02-11T20:59:23.350Z,152.10
2023-02-11T21:01:54.398Z,122.82
2023-02-11T21:04:29.851Z,101.18
2023-02-11T21:07:00.981Z,134.18
2023-02-11T21:09:32.575Z,128.35
2023-02-11T21:12:01.929Z,181.35
2023-02-11T21:14:30.787Z,191.63
2023-02-11T21:16:59.396Z,201.10
2023-02-11T21:19:27.691Z,152.82
2023-02-11T21:21:57.524Z,105.75
2023-02-11T21:26:54.368Z,70.72
2023-02-11T21:29:22.791Z,73.85
2023-02-11T21:31:51.860Z,69.35
2023-02-11T21:34:20.938Z,77.68
2023-02-11T21:36:51.492Z,116.25
2023-02-11T21:39:20.789Z,99.25
2023-02-11T21:41:49.551Z,108.47
2023-02-11T21:44:18.107Z,118.68
2023-02-11T21:46:46.143Z,102.25
2023-02-11T21:49:14.313Z,107.57
2023-02-11T21:51:42.752Z,108.38
2023-02-11T21:54:12.161Z,106.25
2023-02-11T21:56:40.811Z,82.45
2023-02-11T21:59:12.477Z,71.85
2023-02-11T22:01:40.811Z,65.00
2023-02-11T22:04:10.249Z,90.13
2023-02-11T22:09:08.722Z,71.65
2023-02-11T22:11:36.970Z,93.63
2023-02-11T22:14:05.347Z,93.25
2023-02-11T22:16:33.626Z,95.25
2023-02-11T22:19:02.692Z,96.70
2023-02-11T22:21:32.579Z,83.20
2023-02-11T22:24:00.561Z,84.18
2023-02-11T22:26:29.041Z,98.03
2023-02-11T22:28:57.112Z,135.40
2023-02-11T22:31:31.433Z,115.40
2023-02-11T22:34:00.530Z,51.28
2023-02-11T22:36:34.852Z,69.65
2023-02-11T22:39:08.263Z,77.93
2023-02-11T22:41:38.467Z,84.18
2023-02-11T22:44:06.864Z,67.07
2023-02-11T22:46:35.651Z,61.97
2023-02-11T22:49:05.139Z,71.05
2023-02-11T22:51:33.378Z,90.63
2023-02-11T22:54:03.947Z,80.57
2023-02-11T22:56:33.782Z,53.58
2023-02-11T23:01:31.762Z,39.50
2023-02-11T23:04:02.640Z,37.33
2023-02-11T23:06:30.939Z,54.75
2023-02-11T23:08:58.966Z,62.17
2023-02-11T23:11:29.091Z,49.30
2023-02-11T23:13:57.288Z,46.90
2023-02-11T23:16:33.627Z,102.30
2023-02-11T23:19:05.295Z,89.85
2023-02-11T23:21:36.987Z,66.18
2023-02-11T23:24:12.583Z,52.35
2023-02-11T23:26:41.847Z,51.15
2023-02-11T23:29:10.350Z,77.85
2023-02-11T23:31:40.833Z,70.40
2023-02-11T23:34:10.281Z,81.78
2023-02-11T23:36:38.146Z,64.28
2023-02-11T23:39:06.469Z,55.67
2023-02-11T23:41:34.326Z,51.05
2023-02-11T23:44:02.334Z,55.70
2023-02-11T23:46:30.261Z,59.35
2023-02-11T23:48:58.175Z,50.08
2023-02-11T23:51:26.111Z,42.33
2023-02-11T23:53:56.317Z,50.08
2023-02-11T23:56:26.821Z,67.35
2023-02-11T23:58:57.429Z,64.45
